Time;durP1;ratioP1;P1;durP2;ratioP2;P2;SDS_P1;SDS_P2;PMS_P1;PMS_P2;Temp;Humidity;BMP_temperature;BMP_pressure;BME280_temperature;BME280_humidity;BME280_pressure;Samples;Min_cycle;Max_cycle;Signal;HPM_P1;HPM_P2
2022/02/16 00:00:31;;;;;;;69.18;33.80;;;;;;;3.62;72.28;100275.59;5069813;28;20024;-50
2022/02/16 00:02:57;;;;;;;74.97;34.17;;;;;;;3.72;73.34;100272.94;5070078;28;20025;-50
2022/02/16 00:05:23;;;;;;;71.40;32.40;;;;;;;3.32;74.79;100281.94;5070140;28;20028;-50
2022/02/16 00:07:48;;;;;;;71.10;34.53;;;;;;;3.40;75.22;100287.31;5070311;28;20109;-50
2022/02/16 00:10:15;;;;;;;65.28;34.13;;;;;;;3.48;74.73;100284.81;5070248;28;20107;-50
2022/02/16 00:12:41;;;;;;;75.97;35.75;;;;;;;3.67;74.22;100280.44;5070215;28;20025;-50
2022/02/16 00:15:07;;;;;;;73.72;34.13;;;;;;;3.78;74.94;100277.59;5069922;28;20353;-51
2022/02/16 00:17:33;;;;;;;71.18;34.15;;;;;;;3.52;74.81;100277.44;5070171;28;20043;-48
2022/02/16 00:19:59;;;;;;;70.32;32.92;;;;;;;3.53;76.36;100284.38;5070234;28;20484;-50
2022/02/16 00:22:24;;;;;;;67.55;34.13;;;;;;;3.58;74.87;100284.78;5070073;28;20036;-50
2022/02/16 00:24:50;;;;;;;68.80;35.08;;;;;;;3.32;74.91;100281.94;5069191;28;20048;-51
2022/02/16 00:27:16;;;;;;;79.88;37.10;;;;;;;3.18;74.49;100283.25;5069102;28;20078;-50
2022/02/16 00:29:41;;;;;;;83.95;34.75;;;;;;;3.09;76.23;100279.66;5070547;28;20393;-50
2022/02/16 00:32:07;;;;;;;78.10;35.13;;;;;;;2.77;76.96;100284.41;5070564;28;20031;-51
2022/02/16 00:34:32;;;;;;;76.35;35.13;;;;;;;2.71;76.26;100283.16;5070133;28;20495;-48
2022/02/16 00:36:58;;;;;;;77.18;35.72;;;;;;;2.79;75.86;100278.03;5070415;28;20021;-49
2022/02/16 00:39:23;;;;;;;81.32;36.10;;;;;;;2.90;76.13;100277.88;5070305;28;20035;-49
2022/02/16 00:41:49;;;;;;;73.88;34.78;;;;;;;2.83;75.11;100274.16;5072314;28;20044;-50
2022/02/16 00:44:14;;;;;;;72.75;34.28;;;;;;;2.70;77.52;100263.94;5074202;28;20395;-49
2022/02/16 00:46:40;;;;;;;74.78;35.22;;;;;;;2.81;77.50;100257.69;5073590;28;20032;-49
2022/02/16 00:49:05;;;;;;;77.10;36.03;;;;;;;2.75;75.90;100247.75;5073908;28;20020;-48
2022/02/16 00:51:31;;;;;;;79.07;37.45;;;;;;;2.90;77.29;100248.16;5074002;28;20033;-48
2022/02/16 00:53:56;;;;;;;76.32;36.28;;;;;;;3.05;76.22;100253.78;5072595;28;20032;-48
2022/02/16 00:56:22;;;;;;;75.00;36.42;;;;;;;3.02;76.36;100238.28;5074062;28;20078;-49
2022/02/16 00:58:47;;;;;;;76.40;35.42;;;;;;;3.16;75.85;100235.22;5073749;28;20032;-48
2022/02/16 01:01:12;;;;;;;71.88;35.88;;;;;;;2.90;75.95;100246.34;5073912;28;20039;-48
2022/02/16 01:03:38;;;;;;;72.88;35.47;;;;;;;2.86;76.98;100238.88;5073726;28;20488;-48
2022/02/16 01:06:03;;;;;;;76.80;36.10;;;;;;;2.92;75.80;100231.25;5073806;28;20110;-47
2022/02/16 01:08:29;;;;;;;71.85;36.20;;;;;;;3.11;77.22;100233.00;5073861;28;20048;-51
2022/02/16 01:10:55;;;;;;;68.60;35.60;;;;;;;3.04;75.95;100226.66;5073815;28;20031;-48
2022/02/16 01:13:21;;;;;;;69.50;33.67;;;;;;;2.90;76.65;100230.56;5073614;28;20083;-48
2022/02/16 01:15:46;;;;;;;69.70;33.78;;;;;;;3.11;77.06;100225.09;5073666;28;20020;-48
2022/02/16 01:18:12;;;;;;;66.05;32.08;;;;;;;2.99;76.52;100222.78;5073700;28;20581;-47
2022/02/16 01:20:38;;;;;;;68.10;33.35;;;;;;;2.82;75.23;100226.97;5073538;28;20432;-48
2022/02/16 01:23:03;;;;;;;62.03;31.40;;;;;;;2.80;77.42;100227.13;5073840;28;20056;-49
2022/02/16 01:25:29;;;;;;;55.10;29.45;;;;;;;3.09;76.84;100223.59;5073451;28;20127;-48
2022/02/16 01:27:54;;;;;;;60.97;29.88;;;;;;;3.01;75.32;100220.84;5073368;28;20032;-48
2022/02/16 01:30:20;;;;;;;56.90;28.27;;;;;;;2.93;75.45;100218.91;5073681;28;20020;-47
2022/02/16 01:32:45;;;;;;;57.97;29.55;;;;;;;2.83;76.01;100220.75;5073393;28;20372;-47
2022/02/16 01:35:11;;;;;;;53.38;27.98;;;;;;;2.76;76.64;100217.03;5073134;28;20211;-50
2022/02/16 01:37:36;;;;;;;56.15;27.85;;;;;;;2.90;76.65;100220.03;5073285;28;20035;-48
2022/02/16 01:40:03;;;;;;;53.33;28.45;;;;;;;2.89;76.97;100202.63;5073127;28;20043;-51
2022/02/16 01:42:28;;;;;;;54.03;27.90;;;;;;;3.05;75.76;100209.91;5073328;28;20033;-47
2022/02/16 01:44:53;;;;;;;56.63;28.15;;;;;;;3.13;77.25;100203.94;5072904;28;20085;-50
2022/02/16 01:47:19;;;;;;;55.90;28.23;;;;;;;3.20;76.01;100202.38;5073246;28;20032;-50
2022/02/16 01:49:44;;;;;;;54.60;27.10;;;;;;;3.06;76.52;100200.22;5072998;28;20643;-49
2022/02/16 01:52:10;;;;;;;56.30;27.55;;;;;;;2.94;75.83;100202.19;5071654;28;20020;-50
2022/02/16 01:54:35;;;;;;;51.70;26.63;;;;;;;2.90;77.18;100206.09;5072382;28;20029;-48
2022/02/16 01:57:01;;;;;;;59.22;28.27;;;;;;;2.96;76.33;100205.50;5072530;28;20118;-48
2022/02/16 01:59:27;;;;;;;58.75;29.52;;;;;;;3.03;76.14;100190.00;5071125;28;20032;-48
2022/02/16 02:01:52;;;;;;;54.20;26.45;;;;;;;3.08;75.66;100200.91;5072454;28;20082;-48
2022/02/16 02:04:18;;;;;;;54.60;27.63;;;;;;;2.86;76.55;100208.16;5072741;28;20067;-48
2022/02/16 02:06:44;;;;;;;51.58;27.08;;;;;;;3.00;75.89;100204.25;5072236;28;20056;-49
2022/02/16 02:09:10;;;;;;;57.95;28.80;;;;;;;3.15;75.04;100207.25;5072357;28;20108;-49
2022/02/16 02:11:35;;;;;;;55.35;27.75;;;;;;;2.80;75.54;100194.75;5072131;28;20021;-49
2022/02/16 02:14:05;;;;;;;59.25;28.33;;;;;;;2.86;76.77;100196.81;5072322;28;20037;-49
2022/02/16 02:16:30;;;;;;;58.58;29.83;;;;;;;2.94;76.20;100187.25;5072274;28;20044;-51
2022/02/16 02:18:56;;;;;;;53.95;27.50;;;;;;;2.70;76.42;100189.50;5071970;28;20480;-49
2022/02/16 02:21:22;;;;;;;54.20;27.85;;;;;;;2.76;76.57;100206.50;5071623;28;20031;-49
2022/02/16 02:23:48;;;;;;;55.70;27.60;;;;;;;2.76;76.63;100199.47;5071137;28;20537;-48
2022/02/16 02:26:14;;;;;;;50.38;26.35;;;;;;;2.77;77.61;100197.69;5072175;28;20444;-49
2022/02/16 02:28:39;;;;;;;54.28;26.83;;;;;;;2.92;76.95;100191.00;5071732;28;20054;-51
2022/02/16 02:31:05;;;;;;;53.15;27.25;;;;;;;2.72;76.60;100193.69;5071811;28;20453;-50
2022/02/16 02:33:30;;;;;;;53.10;26.55;;;;;;;2.59;75.45;100187.88;5071824;28;20449;-48
2022/02/16 02:35:55;;;;;;;47.17;26.02;;;;;;;2.42;76.35;100185.94;5071630;28;20033;-51
2022/02/16 02:38:21;;;;;;;50.08;26.23;;;;;;;2.39;77.89;100179.19;5071834;28;20387;-49
2022/02/16 02:40:53;;;;;;;53.70;26.80;;;;;;;2.52;78.33;100187.59;5071841;28;20126;-51
2022/02/16 02:43:20;;;;;;;49.30;24.73;;;;;;;2.57;77.28;100183.72;5072383;28;20056;-49
2022/02/16 02:45:46;;;;;;;51.75;26.17;;;;;;;2.52;77.35;100194.66;5071868;28;20020;-51
2022/02/16 02:48:11;;;;;;;48.22;25.20;;;;;;;2.46;76.76;100193.44;5071943;28;20031;-52
2022/02/16 02:50:37;;;;;;;47.42;25.13;;;;;;;2.54;76.17;100195.34;5071683;28;20024;-51
2022/02/16 02:53:02;;;;;;;44.55;24.35;;;;;;;2.41;77.02;100197.44;5071631;28;20032;-51
2022/02/16 02:55:28;;;;;;;47.50;26.15;;;;;;;2.57;77.81;100194.22;5071327;28;20365;-49
2022/02/16 02:57:54;;;;;;;52.58;26.88;;;;;;;2.57;76.79;100191.59;5071287;28;20028;-52
2022/02/16 03:00:19;;;;;;;53.65;25.13;;;;;;;2.58;77.35;100191.47;5071129;28;20487;-48
2022/02/16 03:02:45;;;;;;;45.03;23.95;;;;;;;2.46;77.07;100192.59;5071301;28;20031;-49
2022/02/16 03:05:11;;;;;;;48.47;24.45;;;;;;;2.52;76.96;100187.59;5069589;28;20354;-47
2022/02/16 03:07:37;;;;;;;45.22;24.45;;;;;;;2.68;76.74;100194.09;5071425;28;20033;-52
2022/02/16 03:10:03;;;;;;;49.80;24.85;;;;;;;2.30;77.20;100149.34;5071385;28;20074;-50
2022/02/16 03:12:29;;;;;;;44.85;24.85;;;;;;;2.49;76.83;100195.75;5071722;28;20021;-50
2022/02/16 03:14:54;;;;;;;42.78;24.00;;;;;;;2.50;76.33;100188.72;5071069;28;20511;-49
2022/02/16 03:17:20;;;;;;;42.90;23.45;;;;;;;2.56;76.63;100195.22;5071177;28;20097;-48
2022/02/16 03:19:45;;;;;;;46.53;23.65;;;;;;;2.64;77.47;100180.38;5071331;28;20028;-51
2022/02/16 03:22:11;;;;;;;50.55;24.65;;;;;;;2.67;76.45;100182.75;5070916;28;20028;-52
2022/02/16 03:24:36;;;;;;;47.13;25.17;;;;;;;2.57;77.58;100191.59;5071100;28;20035;-50
2022/02/16 03:27:02;;;;;;;44.05;23.98;;;;;;;2.56;77.13;100188.16;5071397;28;20565;-48
2022/02/16 03:29:27;;;;;;;42.85;24.25;;;;;;;2.66;76.48;100191.59;5071664;28;20024;-50
2022/02/16 03:31:53;;;;;;;48.22;24.30;;;;;;;2.64;77.25;100193.53;5070978;28;20024;-51
2022/02/16 03:34:18;;;;;;;43.63;23.95;;;;;;;2.60;75.73;100189.53;5071050;28;20016;-49
2022/02/16 03:36:43;;;;;;;45.05;23.73;;;;;;;2.46;76.15;100196.06;5071282;28;20040;-50
2022/02/16 03:39:09;;;;;;;44.35;22.90;;;;;;;2.48;76.60;100199.38;5069830;28;20089;-52
2022/02/16 03:41:35;;;;;;;44.90;22.50;;;;;;;2.53;76.83;100201.56;5070889;28;20021;-52
2022/02/16 03:44:00;;;;;;;41.47;23.23;;;;;;;2.80;76.59;100200.00;5071068;28;20031;-48
2022/02/16 03:46:26;;;;;;;43.30;23.70;;;;;;;2.86;75.94;100197.66;5071118;28;20028;-49
2022/02/16 03:48:52;;;;;;;44.58;23.25;;;;;;;2.83;76.32;100186.59;5070751;28;20453;-51
2022/02/16 03:51:17;;;;;;;45.35;24.00;;;;;;;2.82;74.70;100182.28;5071237;28;20021;-51
2022/02/16 03:53:43;;;;;;;44.88;22.88;;;;;;;2.97;75.99;100180.03;5069939;28;20024;-52
2022/02/16 03:56:08;;;;;;;45.97;23.70;;;;;;;2.85;75.76;100176.75;5070901;28;20020;-50
2022/02/16 03:58:34;;;;;;;45.70;23.15;;;;;;;2.74;75.94;100183.84;5071269;28;20462;-48
2022/02/16 04:00:59;;;;;;;42.85;22.38;;;;;;;2.74;76.11;100185.63;5070852;28;20032;-49
2022/02/16 04:03:25;;;;;;;47.17;23.75;;;;;;;2.60;76.91;100176.38;5069718;28;20028;-48
2022/02/16 04:05:50;;;;;;;45.15;23.00;;;;;;;2.62;76.22;100179.72;5070649;28;20404;-48
2022/02/16 04:08:16;;;;;;;43.05;23.60;;;;;;;2.59;76.32;100180.00;5070970;28;20123;-49
2022/02/16 04:10:41;;;;;;;44.60;23.60;;;;;;;2.61;75.79;100178.06;5070700;28;20456;-50
2022/02/16 04:13:07;;;;;;;114.18;52.53;;;;;;;2.59;76.68;100189.66;5070785;28;20024;-48
2022/02/16 04:15:33;;;;;;;93.68;42.17;;;;;;;2.68;75.38;100187.00;5071039;28;20031;-48
2022/02/16 04:17:59;;;;;;;85.85;38.92;;;;;;;2.64;77.05;100182.19;5074364;28;20461;-50
2022/02/16 04:20:25;;;;;;;46.40;23.92;;;;;;;2.51;76.28;100179.84;5074592;28;20056;-52
2022/02/16 04:22:50;;;;;;;46.58;23.85;;;;;;;2.25;76.76;100183.06;5074368;28;20035;-50
2022/02/16 04:25:16;;;;;;;47.10;24.55;;;;;;;2.24;77.47;100186.66;5074257;28;20081;-52
2022/02/16 04:27:42;;;;;;;48.15;24.55;;;;;;;2.64;74.88;100182.19;5074698;28;20261;-50
2022/02/16 04:30:07;;;;;;;46.05;24.45;;;;;;;2.65;77.05;100178.63;5074295;28;20020;-50
2022/02/16 04:32:33;;;;;;;48.65;23.45;;;;;;;2.52;76.12;100171.84;5074046;28;20028;-48
2022/02/16 04:34:59;;;;;;;49.75;25.05;;;;;;;2.45;76.04;100173.38;5073636;28;20481;-48
2022/02/16 04:37:24;;;;;;;50.20;25.45;;;;;;;2.53;76.65;100175.28;5073736;28;20012;-47
2022/02/16 04:39:50;;;;;;;45.17;24.60;;;;;;;2.53;75.86;100175.28;5073403;28;20491;-48
2022/02/16 04:42:15;;;;;;;44.78;24.58;;;;;;;2.29;76.79;100168.69;5072906;28;20066;-48
2022/02/16 04:44:41;;;;;;;52.30;26.58;;;;;;;2.13;76.58;100164.00;5073529;28;20020;-48
2022/02/16 04:47:06;;;;;;;49.17;25.08;;;;;;;2.18;78.06;100175.91;5073400;28;20032;-51
2022/02/16 04:49:32;;;;;;;48.67;24.98;;;;;;;1.91;77.12;100165.09;5074222;28;20039;-49
2022/02/16 04:51:57;;;;;;;48.38;23.98;;;;;;;2.06;78.00;100181.28;5073565;28;20021;-50
2022/02/16 04:54:23;;;;;;;50.03;24.85;;;;;;;1.99;77.82;100187.22;5073463;28;20021;-52
2022/02/16 04:56:48;;;;;;;48.30;25.08;;;;;;;2.00;77.56;100186.22;5073895;28;20514;-51
2022/02/16 04:59:14;;;;;;;48.50;24.98;;;;;;;2.08;77.27;100189.84;5072481;28;20369;-51
2022/02/16 05:01:39;;;;;;;46.80;25.90;;;;;;;1.85;78.60;100188.44;5072459;28;20028;-49
2022/02/16 05:04:05;;;;;;;51.22;26.08;;;;;;;1.82;78.94;100186.09;5072731;28;20020;-49
2022/02/16 05:06:30;;;;;;;53.10;26.58;;;;;;;2.03;78.17;100178.09;5072306;28;20049;-51
2022/02/16 05:08:57;;;;;;;50.10;26.27;;;;;;;2.11;78.13;100162.47;5072362;28;20214;-49
2022/02/16 05:11:23;;;;;;;66.13;27.17;;;;;;;1.84;78.61;100169.22;5072310;28;20203;-50
2022/02/16 05:13:48;;;;;;;50.22;27.20;;;;;;;1.98;77.31;100164.53;5072174;28;20563;-49
2022/02/16 05:16:14;;;;;;;58.63;28.25;;;;;;;2.02;79.13;100171.16;5072108;28;20025;-48
2022/02/16 05:18:39;;;;;;;88.03;37.97;;;;;;;4.35;98.25;100169.34;5072280;28;20487;-49
2022/02/16 05:21:05;;;;;;;60.78;29.60;;;;;;;5.33;87.44;100170.91;5072274;28;20020;-49
2022/02/16 05:23:30;;;;;;;48.00;25.25;;;;;;;5.87;73.88;100179.34;5071994;28;20028;-50
2022/02/16 05:25:57;;;;;;;51.03;26.63;;;;;;;4.52;67.85;100172.94;5071168;28;20480;-48
2022/02/16 05:28:22;;;;;;;56.30;27.23;;;;;;;4.29;70.26;100181.34;5057861;28;20032;-49
2022/02/16 05:30:48;;;;;;;54.15;27.55;;;;;;;3.61;70.34;100187.06;5070540;28;20028;-47
2022/02/16 05:33:13;;;;;;;60.53;29.30;;;;;;;3.26;70.86;100178.13;5071560;28;20089;-51
2022/02/16 05:35:39;;;;;;;71.18;35.10;;;;;;;2.64;73.60;100184.81;5061085;28;20028;-49
2022/02/16 05:38:04;;;;;;;66.82;35.10;;;;;;;2.31;74.72;100198.28;5051974;28;20028;-49
2022/02/16 05:40:30;;;;;;;67.57;33.90;;;;;;;2.10;76.42;100206.28;5051670;28;20017;-49
2022/02/16 05:42:55;;;;;;;65.35;34.95;;;;;;;1.90;76.83;100191.47;5051993;28;20025;-50
2022/02/16 05:45:21;;;;;;;60.85;31.25;;;;;;;1.63;78.28;100200.81;5050796;28;20033;-48
2022/02/16 05:47:46;;;;;;;69.13;32.53;;;;;;;1.76;77.61;100204.03;5050081;28;20025;-49
2022/02/16 05:50:12;;;;;;;105.35;47.47;;;;;;;1.90;77.57;100205.41;5049145;28;20388;-48
2022/02/16 05:52:37;;;;;;;85.47;39.97;;;;;;;1.83;77.86;100206.09;5049058;28;20028;-49
2022/02/16 05:55:04;;;;;;;68.15;34.92;;;;;;;2.18;78.34;100212.66;5049049;28;20055;-50
2022/02/16 05:57:30;;;;;;;66.38;33.45;;;;;;;2.32;75.23;100202.56;5049532;28;20025;-51
2022/02/16 05:59:56;;;;;;;67.07;33.47;;;;;;;2.11;76.13;100204.47;5048454;28;20413;-51
2022/02/16 06:02:22;;;;;;;74.40;37.60;;;;;;;2.09;76.47;100209.88;5051134;28;20029;-49
2022/02/16 06:04:47;;;;;;;111.20;47.63;;;;;;;1.93;78.01;100215.66;5051773;28;20523;-50
2022/02/16 06:07:12;;;;;;;72.95;35.33;;;;;;;2.10;78.65;100213.34;5052281;28;20053;-50
2022/02/16 06:09:38;;;;;;;66.18;33.85;;;;;;;2.10;78.35;100223.84;5052094;28;20037;-50
2022/02/16 06:12:04;;;;;;;68.80;37.05;;;;;;;2.25;77.01;100224.28;5052146;28;20052;-49
2022/02/16 06:14:29;;;;;;;183.95;86.13;;;;;;;2.44;78.24;100216.38;5054625;28;20056;-48
2022/02/16 06:16:55;;;;;;;81.68;41.60;;;;;;;2.65;77.06;100213.59;5071639;28;20024;-51
2022/02/16 06:19:20;;;;;;;56.03;29.00;;;;;;;2.99;75.07;100207.84;5071770;28;20105;-51
2022/02/16 06:21:46;;;;;;;58.97;29.08;;;;;;;3.21;74.32;100211.91;5071462;28;20041;-49
2022/02/16 06:24:12;;;;;;;57.33;27.55;;;;;;;3.47;73.20;100227.88;5071746;28;20396;-48
2022/02/16 06:26:37;;;;;;;56.00;27.63;;;;;;;3.65;72.17;100217.38;5071730;28;20024;-49
2022/02/16 06:29:02;;;;;;;59.55;28.00;;;;;;;3.86;71.04;100208.41;5071537;28;20086;-50
2022/02/16 06:31:28;;;;;;;48.30;24.73;;;;;;;3.85;70.84;100212.03;5071577;28;20028;-49
2022/02/16 06:33:54;;;;;;;42.95;23.15;;;;;;;3.96;71.02;100214.47;5071633;28;20029;-52
2022/02/16 06:36:19;;;;;;;45.38;24.27;;;;;;;4.19;68.81;100217.47;5071505;28;20040;-50
2022/02/16 06:38:44;;;;;;;45.50;24.15;;;;;;;4.47;67.42;100212.94;5071041;28;20478;-52
2022/02/16 06:41:10;;;;;;;54.67;26.90;;;;;;;4.40;67.94;100219.81;5071096;28;20024;-49
2022/02/16 06:43:35;;;;;;;53.35;26.60;;;;;;;4.58;67.96;100211.88;5071410;28;20326;-49
2022/02/16 06:46:01;;;;;;;51.72;26.08;;;;;;;4.79;66.72;100208.88;5071136;28;20515;-49
2022/02/16 06:48:26;;;;;;;63.05;33.25;;;;;;;5.14;66.44;100211.56;5069911;28;20028;-51
2022/02/16 06:50:52;;;;;;;65.65;34.70;;;;;;;5.42;66.04;100209.56;5071067;28;20534;-49
2022/02/16 06:53:17;;;;;;;47.42;24.95;;;;;;;5.42;64.30;100199.81;5071232;28;20044;-52
2022/02/16 06:55:43;;;;;;;47.63;24.50;;;;;;;5.42;63.19;100202.47;5071037;28;20488;-49
2022/02/16 06:58:08;;;;;;;45.58;24.52;;;;;;;5.44;63.53;100210.22;5070721;28;20032;-50
2022/02/16 07:00:34;;;;;;;48.85;25.02;;;;;;;5.61;63.58;100211.13;5070946;28;20108;-50
2022/02/16 07:02:59;;;;;;;48.78;25.50;;;;;;;6.23;62.10;100208.16;5070837;28;20341;-49
2022/02/16 07:05:25;;;;;;;42.75;24.13;;;;;;;7.16;58.33;100201.63;5070525;28;20025;-49
2022/02/16 07:07:50;;;;;;;47.53;25.83;;;;;;;7.04;59.07;100204.66;5070290;28;20039;-49
2022/02/16 07:10:16;;;;;;;48.75;25.65;;;;;;;6.62;59.21;100197.75;5070625;28;20079;-49
2022/02/16 07:12:41;;;;;;;46.45;25.85;;;;;;;6.77;60.44;100189.97;5069294;28;20130;-50
2022/02/16 07:15:11;;;;;;;51.42;26.85;;;;;;;6.89;59.04;100189.63;5070408;28;20401;-50
2022/02/16 07:17:40;;;;;;;47.85;25.73;;;;;;;6.96;58.62;100188.78;5070081;28;20037;-50
2022/02/16 07:20:10;;;;;;;44.47;25.63;;;;;;;6.84;59.20;100196.25;5070358;28;20090;-51
2022/02/16 07:22:42;;;;;;;;;;;;;;;7.00;58.66;100192.72;5070667;28;20055;-48
2022/02/16 07:25:08;;;;;;;47.13;25.55;;;;;;;7.28;58.23;100186.22;5070275;28;19938;-49
2022/02/16 07:27:33;;;;;;;44.88;24.23;;;;;;;6.98;58.20;100162.16;5070388;28;20029;-49
2022/02/16 07:29:59;;;;;;;50.88;25.75;;;;;;;7.93;56.50;100180.56;5070269;28;20028;-48
2022/02/16 07:32:24;;;;;;;44.80;25.23;;;;;;;8.51;54.77;100165.09;5070123;28;20028;-48
2022/02/16 07:34:50;;;;;;;48.35;26.95;;;;;;;8.14;56.20;100171.16;5069953;28;20036;-48
2022/02/16 07:37:15;;;;;;;49.30;26.92;;;;;;;7.81;56.27;100174.84;5070099;28;20534;-50
2022/02/16 07:39:41;;;;;;;57.38;28.80;;;;;;;7.88;56.97;100176.81;5070078;28;20024;-49
2022/02/16 07:42:06;;;;;;;48.35;27.08;;;;;;;7.90;56.21;100175.66;5069739;28;20043;-48
2022/02/16 07:44:32;;;;;;;45.90;27.05;;;;;;;8.02;55.72;100178.72;5070205;28;20404;-48
2022/02/16 07:46:57;;;;;;;54.55;27.90;;;;;;;7.58;56.73;100180.13;5069942;28;20485;-51
2022/02/16 07:49:23;;;;;;;49.42;27.73;;;;;;;7.28;58.48;100173.78;5069734;28;20109;-51
2022/02/16 07:51:48;;;;;;;48.30;27.38;;;;;;;8.36;56.78;100180.94;5072648;28;20021;-50
2022/02/16 07:54:14;;;;;;;49.33;26.00;;;;;;;8.26;55.51;100180.34;5074325;28;20028;-51
2022/02/16 07:56:39;;;;;;;46.50;24.65;;;;;;;8.23;54.97;100154.19;5073860;28;20495;-50
2022/02/16 07:59:05;;;;;;;45.58;24.30;;;;;;;8.13;55.88;100174.81;5074011;28;20090;-51
2022/02/16 08:01:30;;;;;;;44.13;24.58;;;;;;;7.51;56.84;100175.69;5074080;28;20587;-49
2022/02/16 08:04:15;;;;;;;47.92;25.45;;;;;;;7.53;57.46;100177.16;5073112;28;20024;-50
2022/02/16 08:06:41;;;;;;;45.03;25.25;;;;;;;7.71;57.24;100181.38;5073833;28;20056;-50
2022/02/16 08:09:10;;;;;;;45.85;25.27;;;;;;;7.52;57.66;100169.38;5073789;28;20028;-48
2022/02/16 08:11:36;;;;;;;48.80;25.42;;;;;;;8.21;58.27;100164.16;5073350;28;20084;-50
2022/02/16 08:14:03;;;;;;;45.60;24.65;;;;;;;8.60;54.45;100156.06;5071908;28;20119;-49
2022/02/16 08:16:28;;;;;;;47.15;24.85;;;;;;;7.89;55.56;100157.25;5073089;28;20129;-48
2022/02/16 08:18:54;;;;;;;44.25;24.88;;;;;;;7.63;57.13;100161.88;5071257;28;20498;-50
2022/02/16 08:21:19;;;;;;;47.70;25.40;;;;;;;7.55;57.66;100158.44;5073239;28;20410;-48
2022/02/16 08:23:45;;;;;;;45.20;26.05;;;;;;;7.42;58.21;100172.25;5073260;28;20035;-49
2022/02/16 08:26:10;;;;;;;52.90;26.63;;;;;;;7.28;58.62;100170.31;5073508;28;20028;-48
2022/02/16 08:28:37;;;;;;;46.10;25.70;;;;;;;7.41;58.46;100160.00;5073291;28;20408;-48
2022/02/16 08:31:03;;;;;;;48.15;25.85;;;;;;;7.58;57.57;100161.56;5073163;28;20372;-49
2022/02/16 08:33:29;;;;;;;48.38;27.45;;;;;;;8.91;54.72;100155.09;5071029;28;20131;-50
2022/02/16 08:35:54;;;;;;;44.83;26.02;;;;;;;8.85;54.13;100153.13;5073021;28;20024;-49
2022/02/16 08:38:19;;;;;;;50.70;25.40;;;;;;;8.71;54.21;100151.31;5073881;28;20017;-49
2022/02/16 08:40:45;;;;;;;48.50;24.95;;;;;;;8.80;54.22;100155.53;5074081;28;20032;-49
2022/02/16 08:43:10;;;;;;;47.58;25.77;;;;;;;8.95;53.88;100164.34;5073770;28;20031;-47
2022/02/16 08:45:36;;;;;;;44.00;25.15;;;;;;;9.14;53.04;100157.66;5073448;28;20033;-49
2022/02/16 08:48:01;;;;;;;44.08;25.38;;;;;;;9.58;52.79;100158.59;5073837;28;20017;-47
2022/02/16 08:50:27;;;;;;;43.00;24.55;;;;;;;10.14;50.57;100156.09;5073755;28;20020;-48
2022/02/16 08:52:53;;;;;;;41.40;24.50;;;;;;;9.81;51.04;100149.66;5073554;28;20017;-48
2022/02/16 08:55:18;;;;;;;44.25;24.13;;;;;;;9.43;52.02;100148.00;5073665;28;20081;-48
2022/02/16 08:57:44;;;;;;;43.60;24.30;;;;;;;8.96;53.26;100146.56;5073514;28;20044;-49
2022/02/16 09:00:10;;;;;;;44.95;25.48;;;;;;;8.97;53.74;100141.06;5072451;28;20031;-49
2022/02/16 09:02:36;;;;;;;43.67;24.38;;;;;;;8.73;54.75;100142.16;5072645;28;20055;-47
2022/02/16 09:05:02;;;;;;;42.70;24.42;;;;;;;8.97;53.92;100140.25;5073465;28;20028;-51
2022/02/16 09:07:28;;;;;;;46.22;25.95;;;;;;;9.77;52.84;100143.88;5073116;28;20048;-48
2022/02/16 09:09:53;;;;;;;44.35;24.95;;;;;;;10.08;50.40;100148.06;5072827;28;20028;-48
2022/02/16 09:12:19;;;;;;;44.08;26.00;;;;;;;9.49;52.00;100139.28;5072635;28;20403;-48
2022/02/16 09:14:44;;;;;;;40.25;24.55;;;;;;;9.38;52.18;100131.78;5072079;28;20036;-48
2022/02/16 09:17:10;;;;;;;42.42;23.95;;;;;;;9.36;52.34;100125.84;5072345;28;20016;-47
2022/02/16 09:19:35;;;;;;;41.55;22.73;;;;;;;9.01;52.91;100125.63;5072257;28;20016;-51
2022/02/16 09:22:01;;;;;;;38.83;23.13;;;;;;;9.00;53.34;100126.59;5071882;28;20017;-50
2022/02/16 09:24:27;;;;;;;39.13;23.17;;;;;;;9.71;52.49;100134.84;5072049;28;20105;-49
2022/02/16 09:26:52;;;;;;;41.22;23.00;;;;;;;10.17;50.72;100133.63;5071961;28;20488;-48
2022/02/16 09:29:18;;;;;;;38.55;22.00;;;;;;;10.17;51.35;100117.69;5069528;28;20024;-48
2022/02/16 09:31:44;;;;;;;41.95;24.92;;;;;;;10.16;50.63;100126.66;5070997;28;20023;-49
2022/02/16 09:34:09;;;;;;;42.28;24.95;;;;;;;10.31;50.39;100115.97;5072191;28;20492;-51
2022/02/16 09:36:35;;;;;;;48.03;25.70;;;;;;;9.98;50.66;100111.16;5072272;28;20476;-51
2022/02/16 09:39:01;;;;;;;50.97;25.00;;;;;;;9.99;50.96;100107.47;5072973;28;20404;-49
2022/02/16 09:41:26;;;;;;;46.05;25.35;;;;;;;10.07;51.13;100104.72;5072478;28;20039;-51
2022/02/16 09:43:52;;;;;;;44.63;26.60;;;;;;;10.11;50.06;100074.06;5072505;28;20028;-50
2022/02/16 09:46:17;;;;;;;41.28;24.92;;;;;;;9.90;51.43;100092.66;5054486;28;20024;-48
2022/02/16 09:48:43;;;;;;;41.95;25.30;;;;;;;10.20;52.69;100088.03;5054570;28;20503;-50
2022/02/16 09:51:09;;;;;;;45.25;25.65;;;;;;;10.14;52.01;100091.47;5072287;28;20098;-51
2022/02/16 09:53:34;;;;;;;46.33;24.80;;;;;;;10.10;50.98;100099.00;5072349;28;20032;-50
2022/02/16 09:56:00;;;;;;;45.05;25.95;;;;;;;10.36;49.83;100092.28;5072120;28;20052;-53
2022/02/16 09:58:25;;;;;;;48.53;24.55;;;;;;;10.37;49.95;100076.09;5071820;28;20021;-51
2022/02/16 10:01:15;;;;;;;44.83;27.08;;;;;;;10.42;49.88;100077.41;5071521;28;20082;-51
2022/02/16 10:04:00;;;;;;;50.05;26.80;;;;;;;10.34;50.03;100068.53;5071469;28;20029;-48
2022/02/16 10:06:39;;;;;;;48.92;27.05;;;;;;;9.57;53.47;100058.63;5071314;28;20047;-49
2022/02/16 10:09:06;;;;;;;47.78;28.42;;;;;;;9.87;51.56;100047.88;5070891;28;20407;-48
2022/02/16 10:11:31;;;;;;;55.53;28.42;;;;;;;10.23;50.82;100053.06;5069309;28;20031;-51
2022/02/16 10:14:16;;;;;;;51.67;29.27;;;;;;;11.14;50.13;100052.19;5070153;28;20020;-47
2022/02/16 10:16:41;;;;;;;49.38;27.77;;;;;;;11.44;48.12;100038.50;5068499;28;20024;-48
2022/02/16 10:19:07;;;;;;;50.95;28.30;;;;;;;10.93;49.19;100027.31;5070470;28;20027;-49
2022/02/16 10:21:32;;;;;;;54.67;28.70;;;;;;;10.40;51.57;100027.03;5070829;28;20028;-50
2022/02/16 10:23:58;;;;;;;48.08;27.05;;;;;;;10.54;49.81;100027.94;5070141;28;20016;-47
2022/02/16 10:26:49;;;;;;;47.95;26.08;;;;;;;10.64;50.69;100028.41;5071108;28;20028;-51
2022/02/16 10:29:22;;;;;;;42.45;24.40;;;;;;;11.64;47.66;100020.72;5071140;28;20024;-50
2022/02/16 10:31:48;;;;;;;43.50;25.98;;;;;;;11.49;47.81;100018.22;5070937;28;20078;-49
2022/02/16 10:34:13;;;;;;;44.95;25.02;;;;;;;11.11;49.28;100005.44;5069910;28;20032;-48
2022/02/16 10:36:39;;;;;;;45.70;25.73;;;;;;;11.17;49.42;100001.16;5071120;28;20024;-48
2022/02/16 10:39:14;;;;;;;57.70;27.77;;;;;;;11.21;49.27;100001.56;5070983;28;20542;-47
2022/02/16 10:41:44;;;;;;;48.30;27.48;;;;;;;10.72;50.44;99992.81;5070834;28;20031;-49
2022/02/16 10:44:21;;;;;;;43.28;26.42;;;;;;;11.41;49.86;100004.28;5070422;28;20027;-47
2022/02/16 10:47:06;;;;;;;38.28;24.60;;;;;;;11.84;48.41;99986.06;5071075;28;20477;-47
2022/02/16 10:49:33;;;;;;;42.55;26.10;;;;;;;11.06;50.19;99985.75;5070422;28;20024;-47
2022/02/16 10:52:18;;;;;;;39.83;24.83;;;;;;;10.78;51.57;99978.72;5069395;28;20392;-49
2022/02/16 10:54:51;;;;;;;41.33;25.30;;;;;;;10.82;51.43;99979.94;5069392;28;20035;-50
2022/02/16 10:57:17;;;;;;;39.13;25.13;;;;;;;11.20;50.60;99979.44;5070498;28;20028;-48
2022/02/16 10:59:43;;;;;;;42.50;23.50;;;;;;;12.09;48.13;99967.59;5070564;28;20020;-51
2022/02/16 11:02:08;;;;;;;37.05;23.13;;;;;;;11.66;49.42;99965.34;5070437;28;20024;-48
2022/02/16 11:04:34;;;;;;;38.92;22.65;;;;;;;11.20;51.13;99955.47;5070313;28;20476;-49
2022/02/16 11:07:00;;;;;;;44.38;22.75;;;;;;;11.34;51.22;99969.63;5070293;28;20056;-49
2022/02/16 11:09:25;;;;;;;36.75;22.85;;;;;;;11.21;51.63;99965.09;5068783;28;20024;-48
2022/02/16 11:11:55;;;;;;;39.50;24.08;;;;;;;11.20;51.20;99947.47;5069099;28;20086;-50